Time;durP1;ratioP1;P1;durP2;ratioP2;P2;SDS_P1;SDS_P2;PMS_P1;PMS_P2;Temp;Humidity;BMP_temperature;BMP_pressure;BME280_temperature;BME280_humidity;BME280_pressure;Samples;Min_cycle;Max_cycle;Signal;HPM_P1;HPM_P2
2021/11/19 00:01:14;;;;;;;43.22;17.65;;;;;;;;;;5013522;28;20271;-71
2021/11/19 00:03:40;;;;;;;40.13;19.38;;;;;;;;;;5016241;28;20186;-70
2021/11/19 00:06:06;;;;;;;35.75;18.65;;;;;;;;;;5025572;28;20248;-70
2021/11/19 00:08:32;;;;;;;34.08;17.73;;;;;;;;;;5016750;28;20276;-70
2021/11/19 00:11:01;;;;;;;37.97;19.20;;;;;;;;;;5022582;28;20219;-70
2021/11/19 00:13:28;;;;;;;39.13;20.58;;;;;;;;;;5010673;28;20662;-70
2021/11/19 00:15:54;;;;;;;37.58;20.77;;;;;;;;;;5020868;28;20190;-70
2021/11/19 00:18:20;;;;;;;40.38;18.75;;;;;;;;;;5011824;28;20186;-71
2021/11/19 00:20:46;;;;;;;40.15;19.77;;;;;;;;;;5023426;28;20190;-71
2021/11/19 00:23:12;;;;;;;43.60;20.58;;;;;;;;;;5011687;28;20186;-70
2021/11/19 00:25:37;;;;;;;44.03;21.05;;;;;;;;;;5022449;28;20229;-70
2021/11/19 00:28:05;;;;;;;37.55;20.20;;;;;;;;;;5013638;28;20214;-71
2021/11/19 00:30:32;;;;;;;42.90;21.67;;;;;;;;;;5023420;28;20252;-70
2021/11/19 00:32:57;;;;;;;44.15;20.77;;;;;;;;;;5019063;28;20689;-70
2021/11/19 00:35:23;;;;;;;41.85;22.13;;;;;;;;;;5012737;28;20190;-71
2021/11/19 00:37:52;;;;;;;35.65;20.85;;;;;;;;;;5019261;28;20244;-70
2021/11/19 00:40:25;;;;;;;48.63;21.92;;;;;;;;;;5016550;28;20591;-70
2021/11/19 00:42:51;;;;;;;46.53;21.70;;;;;;;;;;5026017;28;20646;-70
2021/11/19 00:45:16;;;;;;;48.30;23.15;;;;;;;;;;5014946;28;20197;-71
2021/11/19 00:47:42;;;;;;;45.63;21.77;;;;;;;;;;5020853;28;20182;-70
2021/11/19 00:50:09;;;;;;;40.67;22.17;;;;;;;;;;5015795;28;20589;-70
2021/11/19 00:52:35;;;;;;;50.55;22.85;;;;;;;;;;5018818;28;20358;-70
2021/11/19 00:55:01;;;;;;;53.78;23.23;;;;;;;;;;5018700;28;20194;-69
2021/11/19 00:57:26;;;;;;;38.22;22.30;;;;;;;;;;5025536;28;20265;-70
2021/11/19 00:59:52;;;;;;;43.78;23.83;;;;;;;;;;5011269;28;20190;-70
2021/11/19 01:02:24;;;;;;;45.83;23.08;;;;;;;;;;5017698;28;20186;-71
2021/11/19 01:04:52;;;;;;;45.83;22.88;;;;;;;;;;5011844;28;20237;-70
2021/11/19 01:07:20;;;;;;;42.28;22.90;;;;;;;;;;5020009;28;20254;-71
2021/11/19 01:10:00;;;;;;;48.35;24.50;;;;;;;;;;5025626;28;20207;-70
2021/11/19 01:12:28;;;;;;;48.70;24.13;;;;;;;;;;5013445;28;20199;-70
2021/11/19 01:14:56;;;;;;;45.38;23.60;;;;;;;;;;5022549;28;20190;-71
2021/11/19 01:17:27;;;;;;;49.80;24.67;;;;;;;;;;5016770;28;20210;-70
2021/11/19 01:19:56;;;;;;;47.83;25.00;;;;;;;;;;5016207;28;20530;-70
2021/11/19 01:22:31;;;;;;;48.17;26.23;;;;;;;;;;5015533;28;20183;-70
2021/11/19 01:24:56;;;;;;;45.55;22.38;;;;;;;;;;5012893;28;20182;-70
2021/11/19 01:27:23;;;;;;;43.10;24.17;;;;;;;;;;5017617;28;20712;-71
2021/11/19 01:29:50;;;;;;;44.47;25.30;;;;;;;;;;5022296;28;20638;-70
2021/11/19 01:32:20;;;;;;;48.90;25.10;;;;;;;;;;5015807;28;20217;-71
2021/11/19 01:34:45;;;;;;;53.83;26.00;;;;;;;;;;5016944;28;20299;-71
2021/11/19 01:37:12;;;;;;;47.88;25.35;;;;;;;;;;5015478;28;20272;-71
2021/11/19 01:39:38;;;;;;;40.67;24.83;;;;;;;;;;5024089;28;20264;-71
2021/11/19 01:42:09;;;;;;;44.00;24.27;;;;;;;;;;5014105;28;20679;-71
2021/11/19 01:44:38;;;;;;;43.20;24.73;;;;;;;;;;5025569;28;20232;-71
2021/11/19 01:47:07;;;;;;;48.08;25.58;;;;;;;;;;5013681;28;20194;-71
2021/11/19 01:49:33;;;;;;;46.17;24.95;;;;;;;;;;5026497;28;20197;-71
2021/11/19 01:52:05;;;;;;;47.33;25.75;;;;;;;;;;5022269;28;20184;-71
2021/11/19 01:55:01;;;;;;;44.00;25.83;;;;;;;;;;5012418;28;20277;-71
2021/11/19 01:57:33;;;;;;;43.90;24.38;;;;;;;;;;5027079;28;20709;-71
2021/11/19 02:00:22;;;;;;;50.38;27.40;;;;;;;;;;5018903;28;20190;-71
2021/11/19 02:02:51;;;;;;;45.53;24.75;;;;;;;;;;5020881;28;20554;-71
2021/11/19 02:05:30;;;;;;;46.72;24.80;;;;;;;;;;5018222;28;20253;-71
2021/11/19 02:07:59;;;;;;;39.17;24.88;;;;;;;;;;5036189;28;20190;-71
2021/11/19 02:10:50;;;;;;;41.92;25.77;;;;;;;;;;5009967;28;20187;-71
2021/11/19 02:13:52;;;;;;;44.83;26.23;;;;;;;;;;5019883;28;20297;-71
2021/11/19 02:16:46;;;;;;;43.92;25.77;;;;;;;;;;5019663;28;20563;-71
2021/11/19 02:19:14;;;;;;;48.22;27.02;;;;;;;;;;5015570;28;20197;-71
2021/11/19 02:21:47;;;;;;;41.00;25.75;;;;;;;;;;5026599;28;20189;-71
2021/11/19 02:24:12;;;;;;;45.70;25.23;;;;;;;;;;5016274;28;20182;-71
2021/11/19 02:26:44;;;;;;;44.65;25.00;;;;;;;;;;5015996;28;20230;-71
2021/11/19 02:29:10;;;;;;;48.05;26.40;;;;;;;;;;5013267;28;20538;-71
2021/11/19 02:31:55;;;;;;;46.65;26.80;;;;;;;;;;5023710;28;20209;-71
2021/11/19 02:34:22;;;;;;;55.83;25.50;;;;;;;;;;5018005;28;20193;-71
2021/11/19 02:37:10;;;;;;;47.25;26.08;;;;;;;;;;5024318;28;20221;-71
2021/11/19 02:39:39;;;;;;;47.15;26.35;;;;;;;;;;5008847;28;20194;-71
2021/11/19 02:42:09;;;;;;;46.38;25.63;;;;;;;;;;5021106;28;20666;-71
2021/11/19 02:44:35;;;;;;;44.35;26.40;;;;;;;;;;5021204;28;20559;-71
2021/11/19 02:47:06;;;;;;;47.50;26.73;;;;;;;;;;5012296;28;20182;-71
2021/11/19 02:49:32;;;;;;;45.95;26.30;;;;;;;;;;5026181;28;20205;-71
2021/11/19 02:51:58;;;;;;;48.35;25.45;;;;;;;;;;5013906;28;20240;-72
2021/11/19 02:54:26;;;;;;;45.60;25.38;;;;;;;;;;5023170;28;20192;-72
2021/11/19 02:56:53;;;;;;;38.80;24.70;;;;;;;;;;5016340;28;20271;-71
2021/11/19 02:59:20;;;;;;;42.50;25.33;;;;;;;;;;5019185;28;20225;-71
2021/11/19 03:01:47;;;;;;;49.80;25.15;;;;;;;;;;5011617;28;20186;-71
2021/11/19 03:04:20;;;;;;;44.15;25.40;;;;;;;;;;5019259;28;20245;-71
2021/11/19 03:06:49;;;;;;;44.38;25.65;;;;;;;;;;5014351;28;20278;-71
2021/11/19 03:09:19;;;;;;;46.38;25.90;;;;;;;;;;5018824;28;20196;-71
2021/11/19 03:11:45;;;;;;;45.58;25.33;;;;;;;;;;5012653;28;20197;-71
2021/11/19 03:14:13;;;;;;;42.33;24.92;;;;;;;;;;5024024;28;20297;-71
2021/11/19 03:16:40;;;;;;;41.20;23.92;;;;;;;;;;5015893;28;20241;-71
2021/11/19 03:19:07;;;;;;;41.67;25.15;;;;;;;;;;5022760;28;20649;-71
2021/11/19 03:21:34;;;;;;;41.90;25.33;;;;;;;;;;5025212;28;20590;-71
2021/11/19 03:24:00;;;;;;;39.95;23.30;;;;;;;;;;5017018;28;20186;-71
2021/11/19 03:26:27;;;;;;;41.15;23.92;;;;;;;;;;5025289;28;20598;-71
2021/11/19 03:28:53;;;;;;;40.22;24.45;;;;;;;;;;5014431;28;20292;-71
2021/11/19 03:31:18;;;;;;;42.83;25.65;;;;;;;;;;5023370;28;20269;-71
2021/11/19 03:33:47;;;;;;;40.55;24.13;;;;;;;;;;5012825;28;20332;-71
2021/11/19 03:36:14;;;;;;;42.28;25.08;;;;;;;;;;5025560;28;20269;-71
2021/11/19 03:38:42;;;;;;;41.83;25.23;;;;;;;;;;5015075;28;20716;-71
2021/11/19 03:41:09;;;;;;;41.45;23.33;;;;;;;;;;5019765;28;20247;-71
2021/11/19 03:43:42;;;;;;;40.13;25.13;;;;;;;;;;5013625;28;20194;-71
2021/11/19 03:46:12;;;;;;;40.55;24.08;;;;;;;;;;5027480;28;20199;-72
2021/11/19 03:48:39;;;;;;;42.35;24.33;;;;;;;;;;5017720;28;20186;-71
2021/11/19 03:51:10;;;;;;;45.03;25.02;;;;;;;;;;5022997;28;20660;-71
2021/11/19 03:53:35;;;;;;;46.95;25.45;;;;;;;;;;5033914;28;20743;-71
2021/11/19 03:56:02;;;;;;;45.40;23.80;;;;;;;;;;5025695;28;20213;-71
2021/11/19 03:58:30;;;;;;;43.72;24.58;;;;;;;;;;5027870;28;20563;-71
2021/11/19 04:00:59;;;;;;;40.95;24.77;;;;;;;;;;5017319;28;20193;-71
2021/11/19 04:03:26;;;;;;;41.22;24.58;;;;;;;;;;5015465;28;20178;-71
2021/11/19 04:05:52;;;;;;;43.15;25.42;;;;;;;;;;5018236;28;20264;-71
2021/11/19 04:08:18;;;;;;;40.72;23.92;;;;;;;;;;5027135;28;20230;-71
2021/11/19 04:10:45;;;;;;;43.25;23.30;;;;;;;;;;5019754;28;20225;-71
2021/11/19 04:13:10;;;;;;;44.50;25.67;;;;;;;;;;5024833;28;20268;-71
2021/11/19 04:15:40;;;;;;;41.47;24.70;;;;;;;;;;5017573;28;20551;-71
2021/11/19 04:18:06;;;;;;;47.80;24.63;;;;;;;;;;5023975;28;22095;-71
2021/11/19 04:20:32;;;;;;;50.00;25.83;;;;;;;;;;5016491;28;20273;-71
2021/11/19 04:22:58;;;;;;;44.72;25.73;;;;;;;;;;5025498;28;20329;-72
2021/11/19 04:25:25;;;;;;;41.67;24.55;;;;;;;;;;5016848;28;20630;-71
2021/11/19 04:27:51;;;;;;;44.45;26.83;;;;;;;;;;5024084;28;20190;-70
2021/11/19 04:30:23;;;;;;;48.35;24.20;;;;;;;;;;5022333;28;20182;-71
2021/11/19 04:32:49;;;;;;;45.03;26.00;;;;;;;;;;5025094;28;20241;-71
2021/11/19 04:35:15;;;;;;;47.20;26.30;;;;;;;;;;5020998;28;20189;-71
2021/11/19 04:37:40;;;;;;;48.33;26.17;;;;;;;;;;5018131;28;20186;-71
2021/11/19 04:40:08;;;;;;;43.80;26.13;;;;;;;;;;5024416;28;20190;-71
2021/11/19 04:42:34;;;;;;;44.20;26.15;;;;;;;;;;5012827;28;20646;-72
2021/11/19 04:44:59;;;;;;;39.97;25.67;;;;;;;;;;5019806;28;20186;-71
2021/11/19 04:47:25;;;;;;;51.25;26.27;;;;;;;;;;5015507;28;20190;-72
2021/11/19 04:49:50;;;;;;;48.00;25.88;;;;;;;;;;5025437;28;20593;-71
2021/11/19 04:52:17;;;;;;;48.08;26.27;;;;;;;;;;5012462;28;20511;-71
2021/11/19 04:54:43;;;;;;;52.25;27.42;;;;;;;;;;5019816;28;20186;-72
2021/11/19 04:57:10;;;;;;;53.28;28.60;;;;;;;;;;5017209;28;20217;-71
2021/11/19 04:59:36;;;;;;;47.30;27.52;;;;;;;;;;5017889;28;20210;-71
2021/11/19 05:02:07;;;;;;;53.83;28.45;;;;;;;;;;5002229;28;20194;-72
2021/11/19 05:04:34;;;;;;;48.70;28.08;;;;;;;;;;5016059;28;20247;-71
2021/11/19 05:06:59;;;;;;;53.58;27.52;;;;;;;;;;5017391;28;20255;-71
2021/11/19 05:09:29;;;;;;;50.63;28.25;;;;;;;;;;5008881;28;20538;-71
2021/11/19 05:12:05;;;;;;;49.83;28.55;;;;;;;;;;5017577;28;20190;-72
2021/11/19 05:14:32;;;;;;;48.70;28.75;;;;;;;;;;5005089;28;20208;-72
2021/11/19 05:16:58;;;;;;;59.42;29.20;;;;;;;;;;5018333;28;20528;-72
2021/11/19 05:19:23;;;;;;;55.25;29.17;;;;;;;;;;5009409;28;20196;-72
2021/11/19 05:21:49;;;;;;;54.42;30.30;;;;;;;;;;5017387;28;20186;-72
2021/11/19 05:24:14;;;;;;;52.95;28.98;;;;;;;;;;5009507;28;20197;-72
2021/11/19 05:26:42;;;;;;;54.58;29.35;;;;;;;;;;5016788;28;20216;-71
2021/11/19 05:29:08;;;;;;;52.67;31.10;;;;;;;;;;5008851;28;20182;-71
2021/11/19 05:31:35;;;;;;;53.90;29.30;;;;;;;;;;5016565;28;20182;-71
2021/11/19 05:34:02;;;;;;;59.88;30.02;;;;;;;;;;5007061;28;20590;-71
2021/11/19 05:36:27;;;;;;;58.92;29.52;;;;;;;;;;5015197;28;20190;-71
2021/11/19 05:38:52;;;;;;;59.65;32.42;;;;;;;;;;5005348;28;20518;-71
2021/11/19 05:41:20;;;;;;;58.85;31.63;;;;;;;;;;5016360;28;20182;-71
2021/11/19 05:43:49;;;;;;;58.33;31.95;;;;;;;;;;5013744;28;20190;-71
2021/11/19 05:46:16;;;;;;;57.78;32.15;;;;;;;;;;5006986;28;20287;-71
2021/11/19 05:48:41;;;;;;;63.97;33.97;;;;;;;;;;5015126;28;20569;-71
2021/11/19 05:51:07;;;;;;;66.95;33.83;;;;;;;;;;5004222;28;20202;-71
2021/11/19 05:53:33;;;;;;;64.60;32.92;;;;;;;;;;5009211;28;20322;-71
2021/11/19 05:55:59;;;;;;;64.43;33.08;;;;;;;;;;5007489;28;20217;-70
2021/11/19 05:58:25;;;;;;;60.30;33.63;;;;;;;;;;5015564;28;20576;-71
2021/11/19 06:00:57;;;;;;;60.58;33.75;;;;;;;;;;5009306;28;20190;-70
2021/11/19 06:03:23;;;;;;;68.18;35.50;;;;;;;;;;5013668;28;20216;-70
2021/11/19 06:05:49;;;;;;;63.90;34.00;;;;;;;;;;5007721;28;20233;-70
2021/11/19 06:08:15;;;;;;;68.07;34.13;;;;;;;;;;5014039;28;20200;-70
2021/11/19 06:10:52;;;;;;;63.58;34.67;;;;;;;;;;5007177;28;20194;-71
2021/11/19 06:13:25;;;;;;;69.63;34.85;;;;;;;;;;5016075;28;20237;-71
2021/11/19 06:15:54;;;;;;;62.65;34.20;;;;;;;;;;5018052;28;20498;-70
2021/11/19 06:18:25;;;;;;;70.28;35.80;;;;;;;;;;5008877;28;20198;-71
2021/11/19 06:20:55;;;;;;;71.95;34.70;;;;;;;;;;5019165;28;21551;-71
2021/11/19 06:23:25;;;;;;;63.35;34.55;;;;;;;;;;5016744;28;20663;-72
2021/11/19 06:25:52;;;;;;;67.38;35.80;;;;;;;;;;5007607;28;20198;-72
2021/11/19 06:28:29;;;;;;;68.90;36.03;;;;;;;;;;5002088;28;20221;-71
2021/11/19 06:30:54;;;;;;;68.40;35.92;;;;;;;;;;5013502;28;20984;-72
2021/11/19 06:33:22;;;;;;;64.68;34.60;;;;;;;;;;5009176;28;20320;-71
2021/11/19 06:35:48;;;;;;;69.80;36.63;;;;;;;;;;5013851;28;20193;-72
2021/11/19 06:38:14;;;;;;;61.88;34.00;;;;;;;;;;5006284;28;20213;-71
2021/11/19 06:40:39;;;;;;;68.65;35.17;;;;;;;;;;5018177;28;20645;-71
2021/11/19 06:43:05;;;;;;;63.80;35.28;;;;;;;;;;5008112;28;20289;-71
2021/11/19 06:45:31;;;;;;;66.38;35.03;;;;;;;;;;5021736;28;20645;-71
2021/11/19 06:47:58;;;;;;;65.63;34.50;;;;;;;;;;5008356;28;20193;-71
2021/11/19 06:50:27;;;;;;;63.42;35.42;;;;;;;;;;5018741;28;20186;-72
2021/11/19 06:52:52;;;;;;;67.32;36.13;;;;;;;;;;5008072;28;20653;-71
2021/11/19 06:55:18;;;;;;;64.05;35.22;;;;;;;;;;5021204;28;20202;-70
2021/11/19 06:57:44;;;;;;;65.10;35.67;;;;;;;;;;5021666;28;20192;-71
2021/11/19 07:00:13;;;;;;;66.85;35.20;;;;;;;;;;5010199;28;20513;-71
2021/11/19 07:02:39;;;;;;;68.15;35.83;;;;;;;;;;5018405;28;20189;-71
2021/11/19 07:05:05;;;;;;;64.95;35.70;;;;;;;;;;5007883;28;20226;-71
2021/11/19 07:07:31;;;;;;;62.17;35.20;;;;;;;;;;5012854;28;20209;-71
2021/11/19 07:09:57;;;;;;;61.15;34.67;;;;;;;;;;5003089;28;20186;-71
2021/11/19 07:12:22;;;;;;;64.43;34.75;;;;;;;;;;5007489;28;21157;-71
2021/11/19 07:14:47;;;;;;;63.60;34.35;;;;;;;;;;5001382;28;20246;-71
2021/11/19 07:17:14;;;;;;;66.72;35.58;;;;;;;;;;5014084;28;20189;-71
2021/11/19 07:19:40;;;;;;;70.97;36.25;;;;;;;;;;5007031;28;20221;-71
2021/11/19 07:22:06;;;;;;;60.47;34.05;;;;;;;;;;5016877;28;20244;-71
2021/11/19 07:24:34;;;;;;;67.35;36.50;;;;;;;;;;5011443;28;20209;-72
2021/11/19 07:27:00;;;;;;;69.05;35.63;;;;;;;;;;5015472;28;20202;-71
2021/11/19 07:29:25;;;;;;;66.93;34.85;;;;;;;;;;5014808;28;20395;-71
2021/11/19 07:31:51;;;;;;;63.72;35.45;;;;;;;;;;5006075;28;20239;-71
2021/11/19 07:34:16;;;;;;;59.55;34.03;;;;;;;;;;5019143;28;20187;-71
2021/11/19 07:36:42;;;;;;;68.72;36.03;;;;;;;;;;5009102;28;20183;-71
2021/11/19 07:39:09;;;;;;;61.78;35.05;;;;;;;;;;5018559;28;20209;-71
2021/11/19 07:41:35;;;;;;;63.28;35.90;;;;;;;;;;5013041;28;20189;-71
2021/11/19 07:44:01;;;;;;;63.47;35.05;;;;;;;;;;5020822;28;20183;-71
2021/11/19 07:46:28;;;;;;;59.42;34.58;;;;;;;;;;5012418;28;20213;-71
2021/11/19 07:48:54;;;;;;;66.93;34.25;;;;;;;;;;5017275;28;20197;-71
2021/11/19 07:51:23;;;;;;;63.33;35.50;;;;;;;;;;5014384;28;20296;-71
2021/11/19 07:53:51;;;;;;;63.08;35.72;;;;;;;;;;5019378;28;20213;-72
2021/11/19 07:56:19;;;;;;;62.15;34.95;;;;;;;;;;5015125;28;20584;-71
2021/11/19 07:58:46;;;;;;;64.85;34.78;;;;;;;;;;5019950;28;20194;-71
2021/11/19 08:01:12;;;;;;;65.32;35.25;;;;;;;;;;5015570;28;20198;-71
2021/11/19 08:03:38;;;;;;;63.35;34.35;;;;;;;;;;5018435;28;20614;-71
2021/11/19 08:06:06;;;;;;;63.20;33.95;;;;;;;;;;5024043;28;20276;-71
2021/11/19 08:08:34;;;;;;;61.53;35.35;;;;;;;;;;5015089;28;20190;-71
2021/11/19 08:11:01;;;;;;;56.40;32.40;;;;;;;;;;5019985;28;20187;-71
2021/11/19 08:13:27;;;;;;;55.83;33.17;;;;;;;;;;5014192;28;20701;-71
2021/11/19 08:15:52;;;;;;;58.28;32.53;;;;;;;;;;5020284;28;20260;-71
2021/11/19 08:18:37;;;;;;;57.83;34.22;;;;;;;;;;5015299;28;20178;-71
2021/11/19 08:21:03;;;;;;;62.47;33.05;;;;;;;;;;5022640;28;20205;-71
2021/11/19 08:23:36;;;;;;;59.08;33.90;;;;;;;;;;5008849;28;20269;-70
2021/11/19 08:26:13;;;;;;;57.80;32.70;;;;;;;;;;5019166;28;20682;-71
2021/11/19 08:28:39;;;;;;;57.25;32.65;;;;;;;;;;5015095;28;20296;-71
2021/11/19 08:31:08;;;;;;;58.85;32.90;;;;;;;;;;5014196;28;20269;-70
2021/11/19 08:33:34;;;;;;;59.83;30.70;;;;;;;;;;5015631;28;20591;-70
2021/11/19 08:36:00;;;;;;;49.95;30.63;;;;;;;;;;5023288;28;20539;-70
2021/11/19 08:38:26;;;;;;;50.67;29.73;;;;;;;;;;5014245;28;20186;-70
2021/11/19 08:40:53;;;;;;;49.15;29.70;;;;;;;;;;5018178;28;20208;-70
2021/11/19 08:43:25;;;;;;;51.92;31.23;;;;;;;;;;5013928;28;20182;-71
2021/11/19 08:45:53;;;;;;;48.75;28.85;;;;;;;;;;5017711;28;20198;-71
2021/11/19 08:48:20;;;;;;;46.75;29.33;;;;;;;;;;5024316;28;20265;-70
2021/11/19 08:50:46;;;;;;;44.15;28.20;;;;;;;;;;5013478;28;20186;-71
2021/11/19 08:53:14;;;;;;;51.47;29.83;;;;;;;;;;5025963;28;20209;-71
2021/11/19 08:55:43;;;;;;;46.22;28.40;;;;;;;;;;5013583;28;20211;-70
2021/11/19 08:58:09;;;;;;;47.85;27.92;;;;;;;;;;5018866;28;20206;-71
2021/11/19 09:00:37;;;;;;;45.53;27.25;;;;;;;;;;5013233;28;20194;-70
2021/11/19 09:03:07;;;;;;;53.00;27.88;;;;;;;;;;5017687;28;20179;-70
2021/11/19 09:05:35;;;;;;;47.75;27.45;;;;;;;;;;5014518;28;20275;-69
2021/11/19 09:08:01;;;;;;;46.58;27.33;;;;;;;;;;5021654;28;20213;-70
2021/11/19 09:10:27;;;;;;;44.78;27.20;;;;;;;;;;5011327;28;20653;-71
2021/11/19 09:12:52;;;;;;;51.28;26.88;;;;;;;;;;5016907;28;20203;-70
2021/11/19 09:15:21;;;;;;;44.75;26.20;;;;;;;;;;5011280;28;21202;-70
2021/11/19 09:18:03;;;;;;;42.10;25.65;;;;;;;;;;5020155;28;20182;-70
2021/11/19 09:20:50;;;;;;;42.42;25.55;;;;;;;;;;5013134;28;20205;-70
2021/11/19 09:23:20;;;;;;;47.20;26.73;;;;;;;;;;5018199;28;20229;-70
2021/11/19 09:25:49;;;;;;;49.58;27.25;;;;;;;;;;5013620;28;20697;-70
2021/11/19 09:28:17;;;;;;;47.75;26.83;;;;;;;;;;5015995;28;20186;-70
2021/11/19 09:30:46;;;;;;;40.83;26.13;;;;;;;;;;5021921;28;20178;-70
2021/11/19 09:33:15;;;;;;;42.90;26.90;;;;;;;;;;5020009;28;20269;-70
2021/11/19 09:35:41;;;;;;;40.65;25.58;;;;;;;;;;5019165;28;20205;-70
2021/11/19 09:38:08;;;;;;;43.70;25.90;;;;;;;;;;5009907;28;20194;-72
2021/11/19 09:40:41;;;;;;;45.45;26.90;;;;;;;;;;5018493;28;20182;-72
2021/11/19 09:43:37;;;;;;;41.85;25.20;;;;;;;;;;5013497;28;20269;-72
2021/11/19 09:46:47;;;;;;;42.83;26.33;;;;;;;;;;5019406;28;20282;-72
2021/11/19 09:49:36;;;;;;;35.78;23.95;;;;;;;;;;5021036;28;20186;-71
2021/11/19 09:52:35;;;;;;;40.70;24.85;;;;;;;;;;5006511;28;20471;-71
2021/11/19 09:55:35;;;;;;;38.30;24.20;;;;;;;;;;5002141;28;20649;-71
2021/11/19 09:58:22;;;;;;;34.35;23.17;;;;;;;;;;5010618;28;20209;-71
2021/11/19 10:01:21;;;;;;;39.85;23.77;;;;;;;;;;5012573;28;20217;-71
2021/11/19 10:03:56;;;;;;;32.65;21.33;;;;;;;;;;5007737;28;20195;-71
2021/11/19 10:06:24;;;;;;;37.38;21.38;;;;;;;;;;5015593;28;20243;-71
2021/11/19 10:09:14;;;;;;;26.42;18.52;;;;;;;;;;5013249;28;20619;-71
2021/11/19 10:11:46;;;;;;;29.95;19.35;;;;;;;;;;5021495;28;20273;-71
2021/11/19 10:14:37;;;;;;;31.63;18.42;;;;;;;;;;5005081;28;20214;-71
2021/11/19 10:17:18;;;;;;;26.75;17.55;;;;;;;;;;5022454;28;20197;-71
2021/11/19 10:19:56;;;;;;;26.13;16.70;;;;;;;;;;5010887;28;20364;-71
2021/11/19 10:22:34;;;;;;;28.88;17.08;;;;;;;;;;5023067;28;20213;-71
2021/11/19 10:25:24;;;;;;;29.00;17.02;;;;;;;;;;5010560;28;20185;-71
2021/11/19 10:27:54;;;;;;;31.60;16.33;;;;;;;;;;5014236;28;20203;-71
2021/11/19 10:30:38;;;;;;;28.13;15.45;;;;;;;;;;5009900;28;20233;-71
2021/11/19 10:33:23;;;;;;;24.60;14.77;;;;;;;;;;5021550;28;20293;-72
2021/11/19 10:36:08;;;;;;;22.23;14.18;;;;;;;;;;5010745;28;20221;-71
2021/11/19 10:38:52;;;;;;;25.02;14.48;;;;;;;;;;5017879;28;20331;-71
2021/11/19 10:41:36;;;;;;;19.30;12.70;;;;;;;;;;5008909;28;20214;-71
2021/11/19 10:44:38;;;;;;;26.80;13.52;;;;;;;;;;5017021;28;20243;-71
2021/11/19 10:47:04;;;;;;;18.77;12.45;;;;;;;;;;5019472;28;20190;-71
2021/11/19 10:50:20;;;;;;;17.02;11.93;;;;;;;;;;5019388;28;20248;-71
2021/11/19 10:53:19;;;;;;;20.27;12.18;;;;;;;;;;5012227;28;20308;-71
2021/11/19 10:56:15;;;;;;;19.88;12.00;;;;;;;;;;5017835;28;20293;-71
2021/11/19 10:58:43;;;;;;;19.05;11.10;;;;;;;;;;5020539;28;20599;-71
2021/11/19 11:01:39;;;;;;;20.88;11.25;;;;;;;;;;5019363;28;20194;-71
2021/11/19 11:04:56;;;;;;;13.90;10.05;;;;;;;;;;5023012;28;20325;-71
2021/11/19 11:07:31;;;;;;;18.52;10.75;;;;;;;;;;5015649;28;20629;-71
2021/11/19 11:10:16;;;;;;;19.42;10.13;;;;;;;;;;5023104;28;20177;-71
2021/11/19 11:12:41;;;;;;;15.52;10.13;;;;;;;;;;5018916;28;20259;-72
2021/11/19 11:15:18;;;;;;;14.85;10.15;;;;;;;;;;5021888;28;20262;-71
2021/11/19 11:18:15;;;;;;;17.25;9.00;;;;;;;;;;5030325;28;20379;-71
2021/11/19 11:20:58;;;;;;;15.00;9.60;;;;;;;;;;5017803;28;20182;-71
2021/11/19 11:23:35;;;;;;;15.48;9.73;;;;;;;;;;5018353;28;20254;-71
2021/11/19 11:26:00;;;;;;;17.35;8.95;;;;;;;;;;5017517;28;20190;-71
2021/11/19 11:28:42;;;;;;;12.52;8.02;;;;;;;;;;5010383;28;20240;-72
2021/11/19 11:31:26;;;;;;;89.75;23.55;;;;;;;;;;5021226;28;20521;-71
2021/11/19 11:34:17;;;;;;;15.77;8.55;;;;;;;;;;5006481;28;20217;-71
2021/11/19 11:37:06;;;;;;;13.77;7.90;;;;;;;;;;5020216;28;20245;-71
2021/11/19 11:40:12;;;;;;;10.05;7.32;;;;;;;;;;5016814;28;20628;-71
2021/11/19 11:42:41;;;;;;;73.05;18.80;;;;;;;;;;5035276;28;20205;-71
2021/11/19 11:45:31;;;;;;;12.15;7.10;;;;;;;;;;5018998;28;20637;-71
2021/11/19 11:48:18;;;;;;;11.65;6.15;;;;;;;;;;5006094;28;20815;-71
2021/11/19 11:51:05;;;;;;;11.10;6.25;;;;;;;;;;5021607;28;20182;-71
2021/11/19 11:53:43;;;;;;;12.10;6.53;;;;;;;;;;5021431;28;20617;-71
2021/11/19 11:56:21;;;;;;;9.60;6.13;;;;;;;;;;5021914;28;20206;-71
2021/11/19 11:59:00;;;;;;;12.23;6.60;;;;;;;;;;5014268;28;20185;-71
2021/11/19 12:02:06;;;;;;;13.85;6.32;;;;;;;;;;5023651;28;20281;-71
2021/11/19 12:04:56;;;;;;;13.60;6.38;;;;;;;;;;4994653;28;20321;-71
2021/11/19 12:07:46;;;;;;;14.02;6.38;;;;;;;;;;5017821;28;20634;-71
2021/11/19 12:10:33;;;;;;;13.13;5.97;;;;;;;;;;5011723;28;20194;-71
2021/11/19 12:13:04;;;;;;;12.50;5.63;;;;;;;;;;5018269;28;20202;-71
2021/11/19 12:15:57;;;;;;;12.95;6.22;;;;;;;;;;5015826;28;20319;-71
2021/11/19 12:18:42;;;;;;;12.85;6.57;;;;;;;;;;5019532;28;20232;-71
2021/11/19 12:21:07;;;;;;;11.95;6.00;;;;;;;;;;5013672;28;20178;-71
2021/11/19 12:24:01;;;;;;;10.88;5.93;;;;;;;;;;5024060;28;20277;-72
2021/11/19 12:26:44;;;;;;;13.15;5.90;;;;;;;;;;5006334;28;20602;-71
2021/11/19 12:29:37;;;;;;;12.20;5.65;;;;;;;;;;5025754;28;20543;-71
2021/11/19 12:32:33;;;;;;;12.05;5.40;;;;;;;;;;5019197;28;20198;-71
2021/11/19 12:35:25;;;;;;;10.93;5.30;;;;;;;;;;5014270;28;20212;-71
2021/11/19 12:38:06;;;;;;;10.40;4.45;;;;;;;;;;5021215;28;20182;-71
2021/11/19 12:40:38;;;;;;;12.63;4.80;;;;;;;;;;5012175;28;20948;-71
2021/11/19 12:43:22;;;;;;;16.20;5.22;;;;;;;;;;5024770;28;20186;-71
2021/11/19 12:46:17;;;;;;;11.77;5.57;;;;;;;;;;5009015;28;20195;-71
2021/11/19 12:49:19;;;;;;;11.25;5.07;;;;;;;;;;5017185;28;20186;-72
2021/11/19 12:51:58;;;;;;;12.50;4.07;;;;;;;;;;5012429;28;20646;-71
2021/11/19 12:54:38;;;;;;;10.13;4.35;;;;;;;;;;5021240;28;20194;-71
2021/11/19 12:57:20;;;;;;;8.18;3.70;;;;;;;;;;5013747;28;20206;-72
2021/11/19 12:59:58;;;;;;;8.88;3.60;;;;;;;;;;5021973;28;20194;-71
2021/11/19 13:02:39;;;;;;;10.23;3.50;;;;;;;;;;5016222;28;20240;-71
2021/11/19 13:05:07;;;;;;;12.15;3.70;;;;;;;;;;5019891;28;20240;-71
2021/11/19 13:07:46;;;;;;;9.30;2.95;;;;;;;;;;5009833;28;20195;-71
2021/11/19 13:10:14;;;;;;;11.88;3.67;;;;;;;;;;5022033;28;20188;-71
2021/11/19 13:13:17;;;;;;;7.45;3.35;;;;;;;;;;5013665;28;20221;-71
2021/11/19 13:15:48;;;;;;;11.75;3.60;;;;;;;;;;5024843;28;20178;-71
2021/11/19 13:18:16;;;;;;;5.97;3.47;;;;;;;;;;5011892;28;20209;-71
2021/11/19 13:20:46;;;;;;;9.85;4.10;;;;;;;;;;5018742;28;20239;-72
2021/11/19 13:23:36;;;;;;;7.95;3.60;;;;;;;;;;5009749;28;20273;-72
2021/11/19 13:26:21;;;;;;;6.63;3.67;;;;;;;;;;5017801;28;20197;-71
2021/11/19 13:29:06;;;;;;;8.55;3.35;;;;;;;;;;5012279;28;20193;-71
2021/11/19 13:31:34;;;;;;;8.00;3.60;;;;;;;;;;5019752;28;20221;-72
2021/11/19 13:34:08;;;;;;;10.18;3.60;;;;;;;;;;5015154;28;20214;-71
2021/11/19 13:36:45;;;;;;;12.52;4.03;;;;;;;;;;5022437;28;20186;-71
2021/11/19 13:39:30;;;;;;;12.40;3.75;;;;;;;;;;5013151;28;21666;-71
2021/11/19 13:42:05;;;;;;;8.63;3.63;;;;;;;;;;5011697;28;20252;-71
2021/11/19 13:45:02;;;;;;;10.98;4.03;;;;;;;;;;5011112;28;20539;-71
2021/11/19 13:47:31;;;;;;;9.27;3.50;;;;;;;;;;5019684;28;20240;-70
2021/11/19 13:50:30;;;;;;;6.15;3.67;;;;;;;;;;5008708;28;20186;-71
2021/11/19 13:52:58;;;;;;;9.23;3.33;;;;;;;;;;5021775;28;20217;-71
2021/11/19 13:55:32;;;;;;;9.43;3.53;;;;;;;;;;5009984;28;20236;-71
2021/11/19 13:58:15;;;;;;;10.65;3.67;;;;;;;;;;5018452;28;20584;-71
2021/11/19 14:01:02;;;;;;;8.75;3.30;;;;;;;;;;5009933;28;20302;-71
2021/11/19 14:03:30;;;;;;;9.60;3.25;;;;;;;;;;5021657;28;20633;-72
2021/11/19 14:05:58;;;;;;;11.82;3.55;;;;;;;;;;5011185;28;20265;-72
2021/11/19 14:08:26;;;;;;;9.30;3.58;;;;;;;;;;5017963;28;20278;-72
2021/11/19 14:10:57;;;;;;;6.43;3.25;;;;;;;;;;5016735;28;20186;-72
2021/11/19 14:13:29;;;;;;;8.48;3.40;;;;;;;;;;5023892;28;20217;-72
2021/11/19 14:16:12;;;;;;;7.85;3.50;;;;;;;;;;5013343;28;20197;-72
2021/11/19 14:24:24;;;;;;;8.02;3.40;;;;;;;;;;5015842;28;20197;-71
2021/11/19 14:27:13;;;;;;;6.93;3.08;;;;;;;;;;5016065;28;20219;-72
2021/11/19 14:29:49;;;;;;;9.95;3.70;;;;;;;;;;5019060;28;20192;-72
2021/11/19 14:32:29;;;;;;;8.73;2.88;;;;;;;;;;5018802;28;20186;-72
2021/11/19 14:34:59;;;;;;;7.82;2.97;;;;;;;;;;5025780;28;20806;-72
2021/11/19 14:37:30;;;;;;;8.55;3.13;;;;;;;;;;5009140;28;20570;-72
2021/11/19 14:40:06;;;;;;;7.43;2.47;;;;;;;;;;5020899;28;20601;-71
2021/11/19 14:42:31;;;;;;;7.00;2.65;;;;;;;;;;5006282;28;20547;-71
2021/11/19 14:45:06;;;;;;;5.68;2.38;;;;;;;;;;5021402;28;20205;-72
2021/11/19 14:47:40;;;;;;;10.95;2.70;;;;;;;;;;5011186;28;20250;-72
2021/11/19 14:51:02;;;;;;;9.57;2.33;;;;;;;;;;5017917;28;20175;-72
2021/11/19 14:53:03;;;;;;;9.27;3.28;;;;;;;;;;5008261;28;20234;-72
2021/11/19 14:55:28;;;;;;;12.27;2.55;;;;;;;;;;5015634;28;20716;-71
2021/11/19 14:58:15;;;;;;;7.78;2.33;;;;;;;;;;5005936;28;20213;-71
2021/11/19 15:00:53;;;;;;;8.77;2.38;;;;;;;;;;5023073;28;20179;-71